Time;durP1;ratioP1;P1;durP2;ratioP2;P2;SDS_P1;SDS_P2;PMS_P1;PMS_P2;Temp;Humidity;BMP_temperature;BMP_pressure;BME280_temperature;BME280_humidity;BME280_pressure;Samples;Min_cycle;Max_cycle;Signal;HPM_P1;HPM_P2
2022/01/10 00:00:52;;;;;;;9.10;2.73;;;3.70;99.90;;;;;;5036432;28;20240;-50
2022/01/10 00:03:20;;;;;;;11.70;2.80;;;3.60;99.90;;;;;;5027521;28;20216;-51
2022/01/10 00:05:47;;;;;;;8.53;2.63;;;3.60;99.90;;;;;;5045912;28;20282;-51
2022/01/10 00:08:15;;;;;;;8.83;2.50;;;3.60;99.90;;;;;;5014427;28;20292;-51
2022/01/10 00:10:44;;;;;;;14.63;2.60;;;3.60;99.90;;;;;;5044084;28;20210;-51
2022/01/10 00:13:13;;;;;;;6.37;2.37;;;3.60;99.90;;;;;;5031283;28;20220;-51
2022/01/10 00:15:40;;;;;;;10.37;2.50;;;3.50;99.90;;;;;;5035391;28;20214;-52
2022/01/10 00:18:07;;;;;;;7.10;2.30;;;3.50;99.90;;;;;;5033557;28;20879;-51
2022/01/10 00:20:34;;;;;;;5.83;2.27;;;3.50;99.90;;;;;;5048784;28;20210;-51
2022/01/10 00:23:01;;;;;;;8.90;2.10;;;3.50;99.90;;;;;;5021500;28;20231;-51
2022/01/10 00:25:28;;;;;;;11.43;2.60;;;3.50;99.90;;;;;;5038101;28;20212;-51
2022/01/10 00:27:56;;;;;;;5.13;2.00;;;3.50;99.90;;;;;;5024369;28;20597;-51
2022/01/10 00:30:26;;;;;;;7.73;2.40;;;3.40;99.90;;;;;;5026400;28;20340;-50
2022/01/10 00:32:53;;;;;;;6.47;2.57;;;3.40;99.90;;;;;;5034021;28;20228;-51
2022/01/10 00:35:20;;;;;;;9.23;2.57;;;3.40;99.90;;;;;;5035673;28;20231;-51
2022/01/10 00:37:47;;;;;;;6.83;2.70;;;3.40;99.90;;;;;;5032096;28;20223;-52
2022/01/10 00:40:20;;;;;;;8.60;2.37;;;3.40;99.90;;;;;;5046495;28;20249;-51
2022/01/10 00:42:53;;;;;;;12.10;2.13;;;3.30;99.90;;;;;;5052426;28;20330;-51
2022/01/10 00:45:25;;;;;;;6.40;2.20;;;3.30;99.90;;;;;;5018662;28;20218;-51
2022/01/10 00:47:54;;;;;;;11.73;2.40;;;3.30;99.90;;;;;;5040165;28;20223;-51
2022/01/10 00:50:21;;;;;;;10.77;3.53;;;3.30;99.90;;;;;;5037774;28;20212;-51
2022/01/10 00:52:48;;;;;;;11.07;2.37;;;3.30;99.90;;;;;;5052197;28;20228;-51
2022/01/10 00:55:15;;;;;;;9.10;2.53;;;3.30;99.90;;;;;;5027784;28;20219;-53
2022/01/10 00:57:42;;;;;;;5.57;2.30;;;3.30;99.90;;;;;;5054480;28;20996;-46
2022/01/10 01:00:12;;;;;;;12.53;3.00;;;3.20;99.90;;;;;;5042710;28;20204;-46
2022/01/10 01:02:39;;;;;;;10.00;2.37;;;3.30;99.90;;;;;;5015088;28;20256;-46
2022/01/10 01:05:10;;;;;;;6.37;2.50;;;3.30;99.90;;;;;;5039824;28;20424;-47
2022/01/10 01:07:38;;;;;;;9.73;2.50;;;3.30;99.90;;;;;;5045699;28;20209;-46
2022/01/10 01:10:25;;;;;;;9.87;2.30;;;3.30;99.90;;;;;;5030207;28;20209;-46
2022/01/10 01:12:56;;;;;;;10.73;2.10;;;3.20;99.90;;;;;;5025497;28;20229;-46
2022/01/10 01:15:25;;;;;;;9.33;2.20;;;3.30;99.90;;;;;;5034870;28;20216;-47
2022/01/10 01:18:10;;;;;;;8.67;2.60;;;3.30;99.90;;;;;;5030717;28;20214;-46
2022/01/10 01:24:00;;;;;;;10.87;2.87;;;3.30;99.90;;;;;;5028705;28;20208;-47
2022/01/10 01:26:17;;;;;;;6.73;2.40;;;3.30;99.90;;;;;;5025139;28;20224;-47
2022/01/10 01:28:44;;;;;;;6.03;2.13;;;3.30;99.90;;;;;;5046354;28;20194;-46
2022/01/10 01:31:11;;;;;;;11.90;2.37;;;3.40;99.90;;;;;;5037680;28;20208;-47
2022/01/10 01:33:39;;;;;;;6.00;2.23;;;3.30;99.90;;;;;;5019281;28;20196;-46
2022/01/10 01:36:08;;;;;;;6.33;2.23;;;3.30;99.90;;;;;;5034674;28;20201;-50
2022/01/10 01:38:35;;;;;;;12.80;2.80;;;3.40;99.90;;;;;;5031865;28;20331;-51
2022/01/10 01:41:19;;;;;;;6.10;2.27;;;3.30;99.90;;;;;;5029883;28;20212;-51
2022/01/10 01:43:47;;;;;;;9.77;2.20;;;3.30;99.90;;;;;;5025350;28;20234;-51
2022/01/10 01:46:14;;;;;;;10.67;3.03;;;3.30;99.90;;;;;;5033425;28;20204;-51
2022/01/10 01:48:41;;;;;;;6.43;2.20;;;3.30;99.90;;;;;;5032245;28;20286;-51
2022/01/10 01:51:09;;;;;;;6.40;2.13;;;3.30;99.90;;;;;;5039453;28;20205;-50
2022/01/10 01:53:37;;;;;;;9.00;2.20;;;3.30;99.90;;;;;;5041892;28;20772;-52
2022/01/10 01:56:04;;;;;;;9.17;2.43;;;3.30;99.90;;;;;;5050019;28;20263;-51
2022/01/10 01:58:32;;;;;;;10.37;2.60;;;3.30;99.90;;;;;;5030887;28;20214;-51
2022/01/10 02:00:58;;;;;;;9.73;2.57;;;3.30;99.90;;;;;;5047908;28;20704;-51
2022/01/10 02:03:26;;;;;;;10.83;2.40;;;3.30;99.90;;;;;;5021051;28;20220;-46
2022/01/10 02:05:52;;;;;;;6.03;2.17;;;3.40;99.90;;;;;;5035205;28;21018;-46
2022/01/10 02:08:21;;;;;;;4.80;2.10;;;3.30;99.90;;;;;;5032745;28;20213;-46
2022/01/10 02:10:48;;;;;;;7.27;2.47;;;3.30;99.90;;;;;;5039595;28;20653;-46
2022/01/10 02:13:15;;;;;;;9.33;2.30;;;3.30;99.90;;;;;;5008750;28;20224;-49
2022/01/10 02:15:48;;;;;;;8.20;2.30;;;3.30;99.90;;;;;;5051752;28;20198;-46
2022/01/10 02:18:15;;;;;;;5.70;2.00;;;3.30;99.90;;;;;;5035465;28;20693;-47
2022/01/10 02:20:43;;;;;;;8.77;2.93;;;3.30;99.90;;;;;;5028846;28;20220;-46
2022/01/10 02:23:10;;;;;;;6.67;2.53;;;3.30;99.90;;;;;;5033939;28;20239;-46
2022/01/10 02:25:38;;;;;;;13.40;2.80;;;3.30;99.90;;;;;;5044874;28;20204;-47
2022/01/10 02:28:05;;;;;;;5.50;2.60;;;3.20;99.90;;;;;;5009770;28;20303;-46
2022/01/10 02:30:32;;;;;;;11.03;2.80;;;3.30;99.90;;;;;;5046056;28;20200;-47
2022/01/10 02:33:01;;;;;;;6.43;2.50;;;3.20;99.90;;;;;;5041870;28;20730;-46
2022/01/10 02:35:32;;;;;;;6.87;2.80;;;3.20;99.90;;;;;;5022448;28;20304;-46
2022/01/10 02:38:00;;;;;;;6.93;2.90;;;3.20;99.90;;;;;;5034597;28;20209;-46
2022/01/10 02:40:30;;;;;;;11.17;3.03;;;3.20;99.90;;;;;;5007208;28;20907;-46
2022/01/10 02:42:58;;;;;;;5.10;2.10;;;3.20;99.90;;;;;;5033853;28;20228;-46
2022/01/10 02:45:26;;;;;;;8.57;2.57;;;3.10;99.90;;;;;;5036045;28;20211;-46
2022/01/10 02:47:54;;;;;;;8.97;2.70;;;3.10;99.90;;;;;;5048094;28;20207;-47
2022/01/10 02:50:22;;;;;;;13.47;2.60;;;3.10;99.90;;;;;;5032171;28;20211;-46
2022/01/10 02:52:49;;;;;;;7.93;2.97;;;3.00;99.90;;;;;;5024295;28;20230;-47
2022/01/10 02:55:18;;;;;;;10.17;2.57;;;3.10;99.90;;;;;;5036389;28;20200;-46
2022/01/10 02:57:45;;;;;;;12.67;3.07;;;3.10;99.90;;;;;;5034308;28;20208;-46
2022/01/10 03:00:15;;;;;;;11.53;2.73;;;3.10;99.90;;;;;;5022451;28;20225;-46
2022/01/10 03:02:43;;;;;;;10.23;2.53;;;3.10;99.90;;;;;;5046339;28;20254;-46
2022/01/10 03:05:11;;;;;;;10.53;2.93;;;3.10;99.90;;;;;;5033802;28;20216;-46
2022/01/10 03:07:39;;;;;;;7.63;2.50;;;3.10;99.90;;;;;;5018473;28;20207;-46
2022/01/10 03:10:07;;;;;;;13.60;2.90;;;3.10;99.90;;;;;;5031003;28;20203;-46
2022/01/10 03:12:36;;;;;;;8.50;2.63;;;3.00;99.90;;;;;;5039538;28;20220;-46
2022/01/10 03:15:05;;;;;;;4.67;2.23;;;2.90;99.90;;;;;;5027111;28;20545;-46
2022/01/10 03:17:32;;;;;;;7.70;3.03;;;2.90;99.90;;;;;;5043694;28;20215;-46
2022/01/10 03:19:59;;;;;;;12.63;2.77;;;2.90;99.90;;;;;;5040899;28;20236;-46
2022/01/10 03:22:27;;;;;;;4.60;2.20;;;2.90;99.90;;;;;;5028819;28;20625;-46
2022/01/10 03:24:54;;;;;;;13.07;3.00;;;2.90;99.90;;;;;;5042563;28;20201;-46
2022/01/10 03:27:21;;;;;;;10.93;3.00;;;3.00;99.90;;;;;;5029899;28;20223;-47
2022/01/10 03:29:49;;;;;;;7.30;2.73;;;3.00;99.90;;;;;;5025933;28;20209;-46
2022/01/10 03:32:16;;;;;;;9.37;2.60;;;3.00;99.90;;;;;;5043538;28;20239;-46
2022/01/10 03:34:43;;;;;;;15.33;2.87;;;3.00;99.90;;;;;;5032724;28;20221;-51
2022/01/10 03:37:11;;;;;;;14.03;2.83;;;3.00;99.90;;;;;;5019432;28;20257;-46
2022/01/10 03:39:38;;;;;;;5.47;2.17;;;3.00;99.90;;;;;;5045229;28;20218;-46
2022/01/10 03:42:05;;;;;;;11.30;2.93;;;3.00;99.90;;;;;;5036943;28;20764;-46
2022/01/10 03:44:32;;;;;;;12.77;3.10;;;3.00;99.90;;;;;;5049984;28;20224;-47
2022/01/10 03:47:02;;;;;;;13.90;3.20;;;3.00;99.90;;;;;;5014671;28;20221;-46
2022/01/10 03:49:29;;;;;;;16.10;2.60;;;3.10;99.90;;;;;;5052212;28;20204;-47
2022/01/10 03:51:56;;;;;;;12.37;3.57;;;3.10;99.90;;;;;;5038178;28;20238;-46
2022/01/10 03:54:23;;;;;;;14.53;3.10;;;3.00;99.90;;;;;;5023095;28;20282;-47
2022/01/10 03:56:50;;;;;;;6.17;2.73;;;3.10;99.90;;;;;;5028389;28;20205;-46
2022/01/10 03:59:16;;;;;;;9.80;2.87;;;3.10;99.90;;;;;;5054529;28;20210;-47
2022/01/10 04:01:43;;;;;;;7.07;2.23;;;3.10;99.90;;;;;;5027838;28;20225;-46
2022/01/10 04:04:12;;;;;;;6.73;2.43;;;3.10;99.90;;;;;;5020787;28;20236;-46
2022/01/10 04:06:41;;;;;;;10.20;2.83;;;3.10;99.90;;;;;;5042831;28;20204;-46
2022/01/10 04:09:08;;;;;;;5.30;2.87;;;3.00;99.90;;;;;;5029794;28;21541;-46
2022/01/10 04:11:35;;;;;;;10.13;2.87;;;3.00;99.90;;;;;;5015947;28;20225;-46
2022/01/10 04:14:02;;;;;;;8.37;2.97;;;3.00;99.90;;;;;;5046128;28;20221;-46
2022/01/10 04:16:28;;;;;;;15.70;3.53;;;2.90;99.90;;;;;;5028151;28;20219;-46
2022/01/10 04:18:55;;;;;;;13.40;3.03;;;3.00;99.90;;;;;;5045136;28;20204;-46
2022/01/10 04:21:24;;;;;;;5.37;2.43;;;3.00;99.90;;;;;;5028808;28;20232;-46
2022/01/10 04:23:51;;;;;;;14.63;3.37;;;3.00;99.90;;;;;;5030250;28;20239;-46
2022/01/10 04:26:18;;;;;;;6.77;2.77;;;3.00;99.90;;;;;;5023121;28;20217;-46
2022/01/10 04:28:45;;;;;;;17.17;3.60;;;3.00;99.90;;;;;;5036851;28;20212;-46
2022/01/10 04:31:12;;;;;;;20.87;3.57;;;3.00;99.90;;;;;;4997326;28;20237;-46
2022/01/10 04:33:39;;;;;;;11.23;2.63;;;3.00;99.90;;;;;;5029024;28;20988;-46
2022/01/10 04:36:06;;;;;;;8.07;2.93;;;3.00;99.90;;;;;;5044412;28;20206;-46
2022/01/10 04:38:35;;;;;;;11.60;2.90;;;3.10;99.90;;;;;;5025487;28;20208;-46
2022/01/10 04:41:02;;;;;;;15.07;3.87;;;3.10;99.90;;;;;;5017607;28;20619;-46
2022/01/10 04:43:30;;;;;;;7.00;3.40;;;3.10;99.90;;;;;;5011588;28;20952;-46
2022/01/10 04:45:57;;;;;;;9.93;2.87;;;3.10;99.90;;;;;;5037483;28;20222;-46
2022/01/10 04:48:24;;;;;;;14.10;3.50;;;3.10;99.90;;;;;;5010072;28;20212;-46
2022/01/10 04:53:39;;;;;;;11.23;2.93;;;3.10;99.90;;;;;;5009621;28;20197;-47
2022/01/10 04:56:06;;;;;;;15.63;3.20;;;2.90;99.90;;;;;;5025421;28;20208;-46
2022/01/10 04:58:34;;;;;;;8.87;2.90;;;2.90;99.90;;;;;;5024815;28;20213;-46
2022/01/10 05:01:02;;;;;;;14.17;2.77;;;2.90;99.90;;;;;;5032446;28;20901;-46
2022/01/10 05:03:30;;;;;;;7.07;2.70;;;2.80;99.90;;;;;;5011567;28;20225;-46
2022/01/10 05:05:57;;;;;;;5.57;2.40;;;2.70;99.90;;;;;;5017932;28;20215;-48
2022/01/10 05:08:24;;;;;;;5.73;2.40;;;2.60;99.90;;;;;;5048221;28;20205;-47
2022/01/10 05:10:53;;;;;;;7.60;2.43;;;2.60;99.90;;;;;;5021321;28;20952;-44
2022/01/10 05:13:21;;;;;;;7.53;3.17;;;2.60;99.90;;;;;;5020515;28;20224;-45
2022/01/10 05:15:49;;;;;;;10.30;2.50;;;2.50;99.90;;;;;;5033887;28;20351;-44
2022/01/10 05:18:17;;;;;;;9.30;3.13;;;2.50;99.90;;;;;;5023165;28;20295;-44
2022/01/10 05:20:44;;;;;;;6.80;2.50;;;2.50;99.90;;;;;;5029843;28;20224;-44
2022/01/10 05:23:11;;;;;;;5.93;2.70;;;2.50;99.90;;;;;;5032250;28;20232;-45
2022/01/10 05:25:40;;;;;;;10.17;2.83;;;2.50;99.90;;;;;;5031365;28;20212;-45
2022/01/10 05:28:10;;;;;;;6.93;3.07;;;2.60;99.90;;;;;;5018786;28;20211;-44
2022/01/10 05:30:38;;;;;;;10.27;3.30;;;2.60;99.90;;;;;;5021795;28;20214;-45
2022/01/10 05:33:07;;;;;;;16.17;3.77;;;2.70;99.90;;;;;;4999288;28;20993;-44
2022/01/10 05:35:35;;;;;;;8.43;3.53;;;2.70;99.90;;;;;;5002084;28;20302;-45
2022/01/10 05:38:02;;;;;;;9.73;3.20;;;2.80;99.90;;;;;;5013004;28;20208;-44
2022/01/10 05:40:29;;;;;;;10.57;3.23;;;2.80;99.90;;;;;;5046711;28;20208;-45
2022/01/10 05:42:56;;;;;;;13.73;3.43;;;2.70;99.90;;;;;;5000145;28;20239;-44
2022/01/10 05:45:25;;;;;;;14.07;3.83;;;2.80;99.90;;;;;;5032800;28;20768;-44
2022/01/10 05:47:52;;;;;;;13.23;4.00;;;2.80;99.90;;;;;;5029320;28;20216;-45
2022/01/10 05:50:31;;;;;;;11.37;4.20;;;2.80;99.90;;;;;;5009783;28;20212;-44
2022/01/10 05:52:59;;;;;;;13.70;3.67;;;2.80;99.90;;;;;;5004997;28;21145;-44
2022/01/10 05:55:26;;;;;;;9.73;4.00;;;2.70;99.90;;;;;;5027687;28;20205;-44
2022/01/10 05:57:53;;;;;;;12.63;3.80;;;2.70;99.90;;;;;;5001955;28;20208;-44
2022/01/10 06:00:20;;;;;;;20.50;4.27;;;2.70;99.90;;;;;;5010401;28;20790;-44
2022/01/10 06:02:49;;;;;;;13.73;4.33;;;2.70;99.90;;;;;;5024676;28;20235;-44
2022/01/10 06:05:16;;;;;;;8.77;3.80;;;2.70;99.90;;;;;;5011524;28;20240;-44
2022/01/10 06:07:44;;;;;;;14.03;4.40;;;2.70;99.90;;;;;;5021774;28;20909;-44
2022/01/10 06:10:11;;;;;;;9.07;3.57;;;2.70;99.90;;;;;;5031065;28;20214;-44
2022/01/10 06:12:38;;;;;;;11.40;4.73;;;2.60;99.90;;;;;;5000651;28;20247;-44
2022/01/10 06:15:06;;;;;;;13.27;4.03;;;2.60;99.90;;;;;;5017503;28;20432;-44
2022/01/10 06:17:33;;;;;;;9.80;3.53;;;2.60;99.90;;;;;;5009749;28;20216;-44
2022/01/10 06:20:01;;;;;;;18.07;4.10;;;2.60;99.90;;;;;;5013111;28;20676;-44
2022/01/10 06:22:28;;;;;;;11.20;4.47;;;2.60;99.90;;;;;;5037258;28;20495;-44
2022/01/10 06:24:56;;;;;;;12.60;3.97;;;2.50;99.90;;;;;;5033471;28;20246;-51
2022/01/10 06:27:23;;;;;;;11.17;4.20;;;2.50;99.90;;;;;;5028717;28;20599;-51
2022/01/10 06:29:50;;;;;;;13.80;4.37;;;2.50;99.90;;;;;;4988930;28;20209;-51
2022/01/10 06:32:17;;;;;;;7.27;3.97;;;2.50;99.90;;;;;;5009945;28;20554;-51
2022/01/10 06:34:44;;;;;;;11.23;4.47;;;2.50;99.90;;;;;;5011961;28;20216;-51
2022/01/10 06:37:12;;;;;;;10.40;4.17;;;2.50;99.90;;;;;;5013767;28;20216;-52
2022/01/10 06:39:40;;;;;;;11.27;4.00;;;2.50;99.90;;;;;;5022744;28;20212;-51
2022/01/10 06:42:07;;;;;;;10.13;4.60;;;2.50;99.90;;;;;;5048293;28;20228;-51
2022/01/10 06:44:34;;;;;;;10.77;4.37;;;2.50;99.90;;;;;;5023556;28;20442;-51
2022/01/10 06:47:02;;;;;;;10.30;4.60;;;2.50;99.90;;;;;;5031858;28;20205;-51
2022/01/10 06:49:29;;;;;;;12.30;3.87;;;2.50;99.90;;;;;;5025063;28;20253;-50
2022/01/10 06:51:56;;;;;;;12.43;4.43;;;2.50;99.90;;;;;;5021396;28;20232;-51
2022/01/10 06:54:24;;;;;;;13.70;4.77;;;2.40;99.90;;;;;;5010769;28;20504;-48
2022/01/10 06:56:51;;;;;;;14.03;4.63;;;2.40;99.90;;;;;;5040993;28;20670;-48
2022/01/10 06:59:18;;;;;;;11.00;4.43;;;2.30;99.90;;;;;;5016363;28;20207;-48
2022/01/10 07:01:45;;;;;;;14.43;5.07;;;2.20;99.90;;;;;;5027786;28;20640;-49
2022/01/10 07:04:13;;;;;;;10.10;4.50;;;2.20;99.90;;;;;;5011536;28;20868;-48
2022/01/10 07:06:41;;;;;;;13.27;4.37;;;2.20;99.90;;;;;;4997794;28;20207;-48
2022/01/10 07:09:08;;;;;;;13.90;4.80;;;2.20;99.90;;;;;;5024031;28;20231;-48
2022/01/10 07:11:36;;;;;;;6.43;4.10;;;2.30;99.90;;;;;;5034284;28;20646;-48
2022/01/10 07:14:04;;;;;;;8.87;4.50;;;2.30;99.90;;;;;;5017735;28;20213;-49
2022/01/10 07:16:31;;;;;;;13.17;4.20;;;2.20;99.90;;;;;;5029187;28;20313;-48
2022/01/10 07:18:58;;;;;;;16.10;5.27;;;2.20;99.90;;;;;;5035062;28;20702;-48
2022/01/10 07:21:25;;;;;;;15.80;4.63;;;2.20;99.90;;;;;;5010680;28;20225;-48
2022/01/10 07:23:52;;;;;;;9.40;4.30;;;2.20;99.90;;;;;;5001059;28;20225;-48
2022/01/10 07:26:19;;;;;;;13.13;4.57;;;2.20;99.90;;;;;;5015900;28;20597;-50
2022/01/10 07:28:47;;;;;;;11.70;4.63;;;2.20;99.90;;;;;;4994900;28;20238;-51
2022/01/10 07:31:14;;;;;;;12.83;4.30;;;2.20;99.90;;;;;;5016218;28;20240;-50
2022/01/10 07:33:41;;;;;;;9.73;4.23;;;2.20;99.90;;;;;;5014646;28;20563;-44
2022/01/10 07:36:08;;;;;;;12.33;4.50;;;2.20;99.90;;;;;;5033525;28;20202;-44
2022/01/10 07:38:36;;;;;;;12.27;4.63;;;2.20;99.90;;;;;;5004835;28;20413;-44
2022/01/10 07:41:04;;;;;;;9.90;4.50;;;2.10;99.90;;;;;;5036591;28;20736;-45
2022/01/10 07:43:31;;;;;;;9.60;4.47;;;2.10;99.90;;;;;;5016248;28;20527;-46
2022/01/10 07:46:00;;;;;;;12.23;5.10;;;1.90;99.90;;;;;;5031108;28;20233;-46
2022/01/10 07:48:28;;;;;;;15.27;5.47;;;2.00;99.90;;;;;;5025138;28;20207;-46
2022/01/10 07:50:55;;;;;;;17.13;5.47;;;2.00;99.90;;;;;;5011785;28;20212;-45
2022/01/10 07:53:22;;;;;;;10.90;4.70;;;2.00;99.90;;;;;;5011329;28;22132;-46
2022/01/10 07:55:50;;;;;;;11.57;6.47;;;1.90;99.90;;;;;;5027526;28;20211;-46
2022/01/10 07:58:18;;;;;;;13.87;6.43;;;1.90;99.90;;;;;;5025132;28;20223;-45
2022/01/10 08:00:45;;;;;;;13.27;5.17;;;1.80;99.90;;;;;;5016315;28;20425;-46
2022/01/10 08:03:14;;;;;;;16.27;5.43;;;1.80;99.90;;;;;;5010546;28;20255;-46
2022/01/10 08:05:41;;;;;;;14.47;4.83;;;1.80;99.90;;;;;;5003948;28;20913;-47
2022/01/10 08:08:07;;;;;;;15.27;5.03;;;1.80;99.90;;;;;;5013688;28;20430;-48
2022/01/10 08:10:34;;;;;;;9.37;4.90;;;1.90;99.90;;;;;;5038383;28;20771;-47
2022/01/10 08:13:01;;;;;;;9.43;4.57;;;1.90;99.90;;;;;;5000299;28;20226;-48
2022/01/10 08:15:28;;;;;;;11.37;4.93;;;2.10;99.90;;;;;;5027985;28;20191;-48
2022/01/10 08:17:56;;;;;;;10.13;4.87;;;2.10;99.90;;;;;;5011007;28;20377;-48
2022/01/10 08:20:25;;;;;;;19.70;5.03;;;2.10;99.90;;;;;;5027092;28;20220;-48
2022/01/10 08:22:52;;;;;;;17.40;5.57;;;2.10;99.90;;;;;;5001991;28;20227;-48
2022/01/10 08:25:19;;;;;;;13.93;5.27;;;2.10;99.90;;;;;;5014501;28;20232;-48
2022/01/10 08:27:46;;;;;;;14.83;5.07;;;2.20;99.90;;;;;;5008269;28;20217;-46
2022/01/10 08:30:13;;;;;;;15.03;5.57;;;2.20;99.90;;;;;;5022460;28;20219;-46
2022/01/10 08:32:40;;;;;;;14.67;5.57;;;2.20;99.90;;;;;;5023055;28;20227;-46
2022/01/10 08:35:08;;;;;;;19.80;5.60;;;2.20;99.90;;;;;;5031074;28;20300;-46
2022/01/10 08:37:36;;;;;;;13.37;5.60;;;2.30;99.90;;;;;;5033023;28;20580;-46
2022/01/10 08:40:04;;;;;;;15.87;5.67;;;2.20;99.90;;;;;;5031817;28;20230;-46
2022/01/10 08:42:31;;;;;;;12.63;5.70;;;2.30;99.90;;;;;;5030335;28;20235;-46
2022/01/10 08:44:58;;;;;;;18.43;5.60;;;2.30;99.90;;;;;;5028789;28;20431;-46
2022/01/10 08:47:27;;;;;;;11.00;5.47;;;2.30;99.90;;;;;;5033359;28;20208;-46
2022/01/10 08:49:54;;;;;;;17.23;6.27;;;2.30;99.90;;;;;;5042569;28;20854;-46
2022/01/10 08:52:21;;;;;;;9.57;4.47;;;2.40;99.90;;;;;;5046794;28;20224;-46
2022/01/10 08:54:50;;;;;;;18.57;5.60;;;2.40;99.90;;;;;;5015238;28;20233;-51
2022/01/10 08:57:17;;;;;;;9.47;4.50;;;2.40;99.90;;;;;;5040251;28;20223;-51
2022/01/10 08:59:44;;;;;;;11.10;5.73;;;2.50;99.90;;;;;;5041406;28;20230;-51
2022/01/10 09:02:12;;;;;;;16.47;5.17;;;2.60;99.90;;;;;;5028983;28;20331;-51
2022/01/10 09:04:39;;;;;;;23.13;6.00;;;2.60;99.90;;;;;;5045987;28;20235;-50
2022/01/10 09:07:08;;;;;;;11.80;5.60;;;2.60;99.90;;;;;;5041565;28;20216;-51
2022/01/10 09:09:35;;;;;;;12.80;5.17;;;2.60;99.90;;;;;;5034559;28;20239;-51
2022/01/10 09:12:04;;;;;;;13.53;5.47;;;2.70;99.90;;;;;;5029709;28;20238;-51
2022/01/10 09:14:31;;;;;;;15.67;5.23;;;2.70;99.90;;;;;;5031882;28;20215;-51
2022/01/10 09:16:58;;;;;;;12.83;5.17;;;2.70;99.90;;;;;;5011266;28;20405;-51
2022/01/10 09:19:24;;;;;;;15.33;5.37;;;2.80;99.90;;;;;;5047930;28;20205;-51
2022/01/10 09:21:51;;;;;;;20.13;5.83;;;2.80;99.90;;;;;;5030872;28;20224;-51
2022/01/10 09:24:18;;;;;;;9.90;5.43;;;2.90;99.90;;;;;;5048658;28;20576;-51
2022/01/10 09:26:45;;;;;;;12.73;5.47;;;2.90;99.90;;;;;;5012370;28;20213;-50
2022/01/10 09:29:13;;;;;;;16.40;5.50;;;2.90;99.90;;;;;;5035986;28;20238;-51
2022/01/10 09:31:40;;;;;;;11.63;5.30;;;2.90;99.90;;;;;;5027485;28;20237;-51
2022/01/10 09:34:07;;;;;;;16.83;6.20;;;3.00;99.90;;;;;;5025216;28;20208;-51
2022/01/10 09:36:34;;;;;;;14.97;5.97;;;3.00;99.90;;;;;;5041077;28;20208;-51
2022/01/10 09:39:02;;;;;;;17.90;6.73;;;3.00;99.90;;;;;;5049473;28;20298;-50
2022/01/10 09:41:30;;;;;;;22.07;6.60;;;3.00;99.90;;;;;;5027838;28;20491;-51
2022/01/10 09:44:06;;;;;;;13.20;5.57;;;3.10;99.90;;;;;;5028745;28;20215;-50
2022/01/10 09:46:36;;;;;;;14.77;5.53;;;3.10;99.90;;;;;;5032207;28;20508;-51
2022/01/10 09:49:05;;;;;;;15.13;6.03;;;3.20;99.90;;;;;;5030133;28;20205;-50
2022/01/10 09:51:32;;;;;;;11.93;5.57;;;3.20;99.90;;;;;;5045140;28;20951;-51
2022/01/10 09:54:01;;;;;;;22.70;6.63;;;3.30;99.90;;;;;;5033587;28;21060;-50
2022/01/10 09:56:29;;;;;;;22.70;6.80;;;3.30;99.90;;;;;;5028280;28;20310;-51
2022/01/10 09:58:57;;;;;;;13.43;6.33;;;3.30;99.90;;;;;;5035948;28;20227;-50
2022/01/10 10:01:25;;;;;;;23.17;6.93;;;3.30;99.90;;;;;;5030947;28;21289;-51
2022/01/10 10:03:58;;;;;;;20.33;6.07;;;3.30;99.90;;;;;;5008514;28;20373;-51
2022/01/10 10:06:26;;;;;;;11.73;6.37;;;3.30;99.90;;;;;;5046187;28;20228;-46
2022/01/10 10:08:53;;;;;;;17.57;6.70;;;3.30;99.90;;;;;;5026979;28;20910;-46
2022/01/10 10:11:20;;;;;;;25.83;7.93;;;3.40;99.90;;;;;;5040075;28;20228;-46
2022/01/10 10:13:53;;;;;;;16.03;7.10;;;3.40;99.90;;;;;;5017866;28;20197;-45
2022/01/10 10:16:21;;;;;;;18.37;7.00;;;3.40;99.90;;;;;;5026018;28;20203;-46
2022/01/10 10:18:48;;;;;;;15.43;6.57;;;3.40;99.90;;;;;;5016824;28;20325;-46
2022/01/10 10:21:18;;;;;;;19.50;7.17;;;3.50;99.90;;;;;;5036403;28;20229;-46
2022/01/10 10:23:48;;;;;;;16.07;6.33;;;3.50;99.90;;;;;;5031721;28;20224;-46
2022/01/10 10:26:19;;;;;;;20.90;7.10;;;3.50;99.90;;;;;;5027534;28;20236;-46
2022/01/10 10:28:47;;;;;;;18.07;7.10;;;3.50;99.90;;;;;;5011671;28;21175;-46
2022/01/10 10:31:23;;;;;;;11.87;6.00;;;3.50;99.90;;;;;;5043815;28;20232;-46
2022/01/10 10:33:51;;;;;;;12.20;6.43;;;3.60;99.90;;;;;;5016145;28;20674;-46
2022/01/10 10:36:20;;;;;;;16.87;7.50;;;3.70;99.90;;;;;;5033762;28;20811;-46
2022/01/10 10:38:47;;;;;;;20.80;6.57;;;3.70;99.90;;;;;;5030144;28;20382;-46
2022/01/10 10:41:15;;;;;;;20.10;7.60;;;3.70;99.90;;;;;;5031344;28;20575;-46
2022/01/10 10:43:43;;;;;;;13.33;6.90;;;3.70;99.90;;;;;;5008286;28;23125;-46
2022/01/10 10:46:13;;;;;;;17.30;7.33;;;3.70;99.90;;;;;;5015627;28;20221;-46
2022/01/10 10:48:42;;;;;;;15.00;7.00;;;3.70;99.90;;;;;;5034599;28;20216;-46
2022/01/10 10:51:09;;;;;;;13.73;6.43;;;3.70;99.90;;;;;;5008200;28;20690;-46
2022/01/10 10:53:38;;;;;;;15.70;7.80;;;3.70;99.90;;;;;;5017981;28;20206;-46
2022/01/10 10:56:07;;;;;;;14.67;7.07;;;3.70;99.90;;;;;;5036536;28;20223;-46
2022/01/10 10:58:35;;;;;;;17.73;7.73;;;3.70;99.90;;;;;;5020514;28;20223;-46
2022/01/10 11:01:04;;;;;;;16.03;6.67;;;3.80;99.90;;;;;;5012925;28;20231;-46
2022/01/10 11:03:31;;;;;;;17.13;8.03;;;3.70;99.90;;;;;;5032875;28;20818;-50
2022/01/10 11:06:02;;;;;;;18.17;6.83;;;3.80;99.90;;;;;;5033015;28;20839;-48
2022/01/10 11:08:33;;;;;;;19.73;7.07;;;3.80;99.90;;;;;;5013795;28;20298;-48
2022/01/10 11:11:01;;;;;;;22.13;6.40;;;3.80;99.90;;;;;;5046027;28;20287;-47
2022/01/10 11:13:30;;;;;;;24.93;7.87;;;3.80;99.90;;;;;;5030010;28;20515;-48
2022/01/10 11:15:58;;;;;;;19.30;8.43;;;3.80;99.90;;;;;;5023911;28;20762;-48
2022/01/10 11:18:26;;;;;;;18.00;8.30;;;3.90;99.90;;;;;;5031691;28;20592;-48
2022/01/10 11:20:55;;;;;;;14.33;7.80;;;3.90;99.90;;;;;;5040851;28;20193;-49
2022/01/10 11:23:23;;;;;;;22.83;7.87;;;3.90;99.90;;;;;;4996486;28;20878;-48
2022/01/10 11:25:50;;;;;;;18.83;7.10;;;4.00;99.90;;;;;;5023485;28;20220;-48
2022/01/10 11:28:24;;;;;;;21.07;8.03;;;4.00;99.90;;;;;;5033535;28;20466;-51
2022/01/10 11:30:52;;;;;;;20.57;7.60;;;4.00;99.90;;;;;;5014132;28;20302;-51
2022/01/10 11:33:21;;;;;;;20.43;6.53;;;4.00;99.90;;;;;;5023508;28;20204;-51
2022/01/10 11:35:50;;;;;;;12.70;7.23;;;4.00;99.90;;;;;;5009282;28;20390;-51
2022/01/10 11:38:36;;;;;;;20.47;6.80;;;4.00;99.90;;;;;;5011051;28;20687;-51
2022/01/10 11:41:06;;;;;;;19.37;6.80;;;4.00;99.90;;;;;;5031805;28;20615;-50
2022/01/10 11:43:47;;;;;;;17.03;7.97;;;3.90;99.90;;;;;;5024297;28;20706;-51
2022/01/10 11:46:24;;;;;;;15.77;7.73;;;3.90;99.90;;;;;;5025389;28;20227;-50
2022/01/10 11:48:55;;;;;;;14.77;7.67;;;3.90;99.90;;;;;;5015666;28;20532;-50
2022/01/10 11:51:23;;;;;;;18.60;7.50;;;3.90;99.90;;;;;;5018716;28;20216;-50
2022/01/10 11:53:52;;;;;;;17.27;8.13;;;3.90;99.90;;;;;;5011336;28;20204;-51
2022/01/10 11:56:23;;;;;;;17.73;6.50;;;3.90;99.90;;;;;;5024235;28;20599;-50
2022/01/10 11:59:14;;;;;;;18.30;7.40;;;3.90;99.90;;;;;;5023920;28;20847;-49
2022/01/10 12:01:43;;;;;;;17.90;7.90;;;3.90;99.90;;;;;;5007298;28;20225;-48
2022/01/10 12:04:10;;;;;;;18.70;8.37;;;3.90;99.90;;;;;;5018071;28;20398;-48
2022/01/10 12:06:37;;;;;;;19.73;7.40;;;3.90;99.90;;;;;;5034973;28;20224;-48
2022/01/10 12:09:05;;;;;;;15.67;7.60;;;3.90;99.90;;;;;;5010640;28;20202;-48
2022/01/10 12:11:32;;;;;;;13.27;7.17;;;4.00;99.90;;;;;;5023041;28;20675;-48
2022/01/10 12:14:00;;;;;;;17.47;7.27;;;4.00;99.90;;;;;;5035701;28;20291;-48
2022/01/10 12:16:29;;;;;;;13.80;6.93;;;4.10;99.90;;;;;;5021399;28;24021;-48
2022/01/10 12:18:56;;;;;;;17.90;7.20;;;4.10;99.90;;;;;;5010350;28;20642;-48
2022/01/10 12:21:23;;;;;;;20.50;7.37;;;4.20;99.90;;;;;;5041920;28;20241;-48
2022/01/10 12:23:52;;;;;;;18.57;7.27;;;4.20;99.90;;;;;;5007713;28;20610;-48
2022/01/10 12:26:21;;;;;;;21.60;7.87;;;4.30;99.90;;;;;;5041209;28;20306;-48
2022/01/10 12:28:51;;;;;;;23.37;7.60;;;4.30;99.90;;;;;;5029503;28;20684;-48
2022/01/10 12:31:19;;;;;;;18.40;7.73;;;4.40;99.90;;;;;;5027527;28;20677;-48
2022/01/10 12:33:49;;;;;;;20.10;7.43;;;4.40;99.90;;;;;;4984239;28;20597;-48
2022/01/10 12:36:16;;;;;;;19.00;7.73;;;4.40;99.90;;;;;;5022514;28;20219;-51
2022/01/10 12:38:43;;;;;;;17.40;7.37;;;4.40;99.90;;;;;;5013485;28;20236;-48
2022/01/10 12:41:10;;;;;;;24.53;8.40;;;4.50;99.90;;;;;;5011669;28;20209;-48
2022/01/10 12:43:37;;;;;;;22.23;8.07;;;4.50;99.90;;;;;;5029737;28;20208;-48
2022/01/10 12:46:04;;;;;;;29.07;8.73;;;4.50;99.90;;;;;;5011407;28;20319;-49
2022/01/10 12:48:32;;;;;;;15.47;7.47;;;4.50;99.90;;;;;;5012499;28;20221;-49
2022/01/10 12:51:00;;;;;;;17.90;7.23;;;4.50;99.90;;;;;;5018364;28;20204;-48
2022/01/10 12:53:27;;;;;;;17.30;7.90;;;4.40;99.90;;;;;;5042448;28;20206;-48
2022/01/10 12:55:56;;;;;;;17.60;7.43;;;4.40;99.90;;;;;;4999393;28;20212;-48
2022/01/10 12:58:23;;;;;;;17.00;7.77;;;4.50;99.90;;;;;;5025437;28;21185;-49
2022/01/10 13:00:50;;;;;;;13.73;6.70;;;4.40;99.90;;;;;;5036017;28;20205;-49